Terminal Aerodrome Forecast
Issued by NWS Grand Forks, ND

Home | Current Version | Previous Version | Text Only | Print | Product List | Glossary Off
Versions: 1 2 3 4 5 6 7 8 9 10 11 12 13 14 15 16 17 18 19 20 21 22 23 24 25 26 27 28 29 30 31 32 33
000 FTUS43 KFGF 021131 TAFFAR TAF KFAR 021131Z 0212/0312 18014KT P6SM SCT200 WS020/26040KT FM021500 21014KT P6SM SCT200 FM022100 31013KT P6SM SCT200 FM030100 VRB06KT P6SM BKN100 FM030900 VRB05KT P6SM BKN025=

USA.gov is the U.S. government's official web portal to all federal, state and local government web resources and services.